sensor_id;sensor_type;location;lat;lon;timestamp;P1;durP1;ratioP1;P2;durP2;ratioP2
18720;SDS011;9489;50.948;3.114;2023-04-25T00:01:16;17.33;;;7.07;;
18720;SDS011;9489;50.948;3.114;2023-04-25T00:03:42;12.52;;;6.03;;
18720;SDS011;9489;50.948;3.114;2023-04-25T00:06:08;18.50;;;7.03;;
18720;SDS011;9489;50.948;3.114;2023-04-25T00:08:34;11.35;;;5.53;;
18720;SDS011;9489;50.948;3.114;2023-04-25T00:11:00;12.45;;;6.40;;
18720;SDS011;9489;50.948;3.114;2023-04-25T00:13:26;15.27;;;7.18;;
18720;SDS011;9489;50.948;3.114;2023-04-25T00:15:52;15.07;;;7.18;;
18720;SDS011;9489;50.948;3.114;2023-04-25T00:18:25;15.10;;;7.05;;
18720;SDS011;9489;50.948;3.114;2023-04-25T00:20:53;17.20;;;7.53;;
18720;SDS011;9489;50.948;3.114;2023-04-25T00:23:19;19.00;;;6.90;;
18720;SDS011;9489;50.948;3.114;2023-04-25T00:25:46;14.50;;;7.05;;
18720;SDS011;9489;50.948;3.114;2023-04-25T00:28:13;14.70;;;6.80;;
18720;SDS011;9489;50.948;3.114;2023-04-25T00:30:40;13.77;;;6.03;;
18720;SDS011;9489;50.948;3.114;2023-04-25T00:33:06;14.60;;;6.13;;
18720;SDS011;9489;50.948;3.114;2023-04-25T00:35:32;16.50;;;5.82;;
18720;SDS011;9489;50.948;3.114;2023-04-25T00:37:58;19.65;;;6.88;;
18720;SDS011;9489;50.948;3.114;2023-04-25T00:40:24;17.77;;;6.72;;
18720;SDS011;9489;50.948;3.114;2023-04-25T00:42:50;17.75;;;6.97;;
18720;SDS011;9489;50.948;3.114;2023-04-25T00:45:17;14.75;;;5.68;;
18720;SDS011;9489;50.948;3.114;2023-04-25T00:47:43;15.13;;;6.82;;
18720;SDS011;9489;50.948;3.114;2023-04-25T00:50:09;11.43;;;6.10;;
18720;SDS011;9489;50.948;3.114;2023-04-25T00:52:37;15.30;;;6.28;;
18720;SDS011;9489;50.948;3.114;2023-04-25T00:55:05;14.38;;;7.25;;
18720;SDS011;9489;50.948;3.114;2023-04-25T00:57:31;15.60;;;6.50;;
18720;SDS011;9489;50.948;3.114;2023-04-25T00:59:57;19.67;;;7.07;;
18720;SDS011;9489;50.948;3.114;2023-04-25T01:02:23;15.00;;;7.00;;
18720;SDS011;9489;50.948;3.114;2023-04-25T01:04:50;14.77;;;6.50;;
18720;SDS011;9489;50.948;3.114;2023-04-25T01:07:16;15.85;;;6.75;;
18720;SDS011;9489;50.948;3.114;2023-04-25T01:09:42;18.80;;;6.88;;
18720;SDS011;9489;50.948;3.114;2023-04-25T01:12:08;17.50;;;7.10;;
18720;SDS011;9489;50.948;3.114;2023-04-25T01:14:34;15.85;;;6.28;;
18720;SDS011;9489;50.948;3.114;2023-04-25T01:17:00;14.50;;;5.75;;
18720;SDS011;9489;50.948;3.114;2023-04-25T01:19:26;16.95;;;5.90;;
18720;SDS011;9489;50.948;3.114;2023-04-25T01:21:52;13.23;;;5.93;;
18720;SDS011;9489;50.948;3.114;2023-04-25T01:24:18;13.10;;;5.88;;
18720;SDS011;9489;50.948;3.114;2023-04-25T01:26:44;19.65;;;6.68;;
18720;SDS011;9489;50.948;3.114;2023-04-25T01:29:15;14.30;;;5.90;;
18720;SDS011;9489;50.948;3.114;2023-04-25T01:31:42;14.38;;;7.20;;
18720;SDS011;9489;50.948;3.114;2023-04-25T01:34:09;14.85;;;7.30;;
18720;SDS011;9489;50.948;3.114;2023-04-25T01:36:35;18.38;;;7.93;;
18720;SDS011;9489;50.948;3.114;2023-04-25T01:39:00;15.65;;;6.93;;
18720;SDS011;9489;50.948;3.114;2023-04-25T01:41:27;12.32;;;5.60;;
18720;SDS011;9489;50.948;3.114;2023-04-25T01:43:53;10.50;;;5.95;;
18720;SDS011;9489;50.948;3.114;2023-04-25T01:46:18;18.38;;;6.07;;
18720;SDS011;9489;50.948;3.114;2023-04-25T01:48:44;8.80;;;4.88;;
18720;SDS011;9489;50.948;3.114;2023-04-25T01:51:10;13.52;;;4.97;;
18720;SDS011;9489;50.948;3.114;2023-04-25T01:53:36;12.60;;;5.50;;
18720;SDS011;9489;50.948;3.114;2023-04-25T01:56:03;9.15;;;4.95;;
18720;SDS011;9489;50.948;3.114;2023-04-25T01:58:29;13.88;;;5.63;;
18720;SDS011;9489;50.948;3.114;2023-04-25T02:00:55;19.15;;;6.15;;
18720;SDS011;9489;50.948;3.114;2023-04-25T02:03:20;11.55;;;4.75;;
18720;SDS011;9489;50.948;3.114;2023-04-25T02:05:46;18.85;;;6.22;;
18720;SDS011;9489;50.948;3.114;2023-04-25T02:08:12;14.05;;;5.78;;
18720;SDS011;9489;50.948;3.114;2023-04-25T02:10:37;8.90;;;4.32;;
18720;SDS011;9489;50.948;3.114;2023-04-25T02:13:03;12.45;;;5.47;;
18720;SDS011;9489;50.948;3.114;2023-04-25T02:15:30;12.93;;;7.03;;
18720;SDS011;9489;50.948;3.114;2023-04-25T02:17:56;15.38;;;5.63;;
18720;SDS011;9489;50.948;3.114;2023-04-25T02:20:23;15.45;;;5.82;;
18720;SDS011;9489;50.948;3.114;2023-04-25T02:22:49;17.60;;;7.13;;
18720;SDS011;9489;50.948;3.114;2023-04-25T02:25:15;14.15;;;6.10;;
18720;SDS011;9489;50.948;3.114;2023-04-25T02:27:44;12.77;;;5.82;;
18720;SDS011;9489;50.948;3.114;2023-04-25T02:30:11;12.77;;;5.45;;
18720;SDS011;9489;50.948;3.114;2023-04-25T02:32:37;15.05;;;5.70;;
18720;SDS011;9489;50.948;3.114;2023-04-25T02:35:04;16.35;;;5.72;;
18720;SDS011;9489;50.948;3.114;2023-04-25T02:37:30;14.65;;;6.10;;
18720;SDS011;9489;50.948;3.114;2023-04-25T02:39:56;14.98;;;5.65;;
18720;SDS011;9489;50.948;3.114;2023-04-25T02:42:22;13.73;;;6.25;;
18720;SDS011;9489;50.948;3.114;2023-04-25T02:44:48;13.52;;;6.18;;
18720;SDS011;9489;50.948;3.114;2023-04-25T02:47:14;11.23;;;6.03;;
18720;SDS011;9489;50.948;3.114;2023-04-25T02:49:39;9.52;;;5.93;;
18720;SDS011;9489;50.948;3.114;2023-04-25T02:52:05;10.98;;;5.03;;
18720;SDS011;9489;50.948;3.114;2023-04-25T02:54:31;13.77;;;6.30;;
18720;SDS011;9489;50.948;3.114;2023-04-25T02:56:57;9.60;;;5.32;;
18720;SDS011;9489;50.948;3.114;2023-04-25T02:59:22;16.38;;;6.50;;
18720;SDS011;9489;50.948;3.114;2023-04-25T03:01:48;12.57;;;5.78;;
18720;SDS011;9489;50.948;3.114;2023-04-25T03:04:14;10.50;;;5.75;;
18720;SDS011;9489;50.948;3.114;2023-04-25T03:06:40;9.82;;;5.10;;
18720;SDS011;9489;50.948;3.114;2023-04-25T03:09:05;12.77;;;6.18;;
18720;SDS011;9489;50.948;3.114;2023-04-25T03:11:31;13.27;;;6.85;;
18720;SDS011;9489;50.948;3.114;2023-04-25T03:13:57;9.90;;;6.32;;
18720;SDS011;9489;50.948;3.114;2023-04-25T03:16:23;12.88;;;6.07;;
18720;SDS011;9489;50.948;3.114;2023-04-25T03:18:49;13.00;;;5.72;;
18720;SDS011;9489;50.948;3.114;2023-04-25T03:21:15;12.73;;;5.68;;
18720;SDS011;9489;50.948;3.114;2023-04-25T03:23:42;14.23;;;5.43;;
18720;SDS011;9489;50.948;3.114;2023-04-25T03:26:07;16.42;;;4.75;;
18720;SDS011;9489;50.948;3.114;2023-04-25T03:28:33;11.95;;;5.72;;
18720;SDS011;9489;50.948;3.114;2023-04-25T03:30:59;14.18;;;5.32;;
18720;SDS011;9489;50.948;3.114;2023-04-25T03:33:24;12.77;;;4.82;;
18720;SDS011;9489;50.948;3.114;2023-04-25T03:35:50;14.77;;;5.57;;
18720;SDS011;9489;50.948;3.114;2023-04-25T03:38:16;12.05;;;5.85;;
18720;SDS011;9489;50.948;3.114;2023-04-25T03:40:42;12.23;;;5.68;;
18720;SDS011;9489;50.948;3.114;2023-04-25T03:43:08;13.80;;;5.25;;
18720;SDS011;9489;50.948;3.114;2023-04-25T03:45:34;10.82;;;5.47;;
18720;SDS011;9489;50.948;3.114;2023-04-25T03:47:59;10.02;;;4.75;;
18720;SDS011;9489;50.948;3.114;2023-04-25T03:50:25;12.20;;;4.78;;
18720;SDS011;9489;50.948;3.114;2023-04-25T03:52:51;12.15;;;5.40;;
18720;SDS011;9489;50.948;3.114;2023-04-25T03:55:16;12.07;;;5.22;;
18720;SDS011;9489;50.948;3.114;2023-04-25T03:57:42;13.02;;;5.63;;
18720;SDS011;9489;50.948;3.114;2023-04-25T04:00:08;12.77;;;5.32;;
18720;SDS011;9489;50.948;3.114;2023-04-25T04:02:34;13.65;;;5.15;;
18720;SDS011;9489;50.948;3.114;2023-04-25T04:05:01;13.95;;;5.07;;
18720;SDS011;9489;50.948;3.114;2023-04-25T04:07:27;10.18;;;3.95;;
18720;SDS011;9489;50.948;3.114;2023-04-25T04:09:53;10.30;;;4.30;;
18720;SDS011;9489;50.948;3.114;2023-04-25T04:12:19;6.55;;;3.15;;
18720;SDS011;9489;50.948;3.114;2023-04-25T04:14:44;12.55;;;4.28;;
18720;SDS011;9489;50.948;3.114;2023-04-25T04:17:10;11.15;;;4.35;;
18720;SDS011;9489;50.948;3.114;2023-04-25T04:19:36;11.00;;;3.38;;
18720;SDS011;9489;50.948;3.114;2023-04-25T04:22:01;10.75;;;4.25;;
18720;SDS011;9489;50.948;3.114;2023-04-25T04:24:27;10.27;;;4.13;;
18720;SDS011;9489;50.948;3.114;2023-04-25T04:26:53;11.18;;;4.63;;
18720;SDS011;9489;50.948;3.114;2023-04-25T04:29:18;10.23;;;4.05;;
18720;SDS011;9489;50.948;3.114;2023-04-25T04:31:49;7.63;;;4.07;;
18720;SDS011;9489;50.948;3.114;2023-04-25T04:34:15;9.52;;;3.78;;
18720;SDS011;9489;50.948;3.114;2023-04-25T04:36:43;11.73;;;4.55;;
18720;SDS011;9489;50.948;3.114;2023-04-25T04:39:11;11.02;;;3.65;;
18720;SDS011;9489;50.948;3.114;2023-04-25T04:41:37;8.13;;;3.92;;
18720;SDS011;9489;50.948;3.114;2023-04-25T04:44:03;7.40;;;3.58;;
18720;SDS011;9489;50.948;3.114;2023-04-25T04:46:29;10.40;;;3.75;;
18720;SDS011;9489;50.948;3.114;2023-04-25T04:49:03;7.75;;;3.38;;
18720;SDS011;9489;50.948;3.114;2023-04-25T04:51:31;11.43;;;5.63;;
18720;SDS011;9489;50.948;3.114;2023-04-25T04:53:58;10.90;;;3.38;;
18720;SDS011;9489;50.948;3.114;2023-04-25T04:56:27;10.50;;;3.72;;
18720;SDS011;9489;50.948;3.114;2023-04-25T04:58:56;8.13;;;3.80;;
18720;SDS011;9489;50.948;3.114;2023-04-25T05:01:22;8.15;;;3.92;;
18720;SDS011;9489;50.948;3.114;2023-04-25T05:03:48;8.68;;;4.35;;
18720;SDS011;9489;50.948;3.114;2023-04-25T05:06:14;5.55;;;3.10;;
18720;SDS011;9489;50.948;3.114;2023-04-25T05:08:39;7.68;;;3.63;;
18720;SDS011;9489;50.948;3.114;2023-04-25T05:11:05;8.90;;;4.13;;
18720;SDS011;9489;50.948;3.114;2023-04-25T05:13:31;9.63;;;3.30;;
18720;SDS011;9489;50.948;3.114;2023-04-25T05:15:56;8.73;;;3.47;;
18720;SDS011;9489;50.948;3.114;2023-04-25T05:18:22;10.98;;;5.45;;
18720;SDS011;9489;50.948;3.114;2023-04-25T05:20:48;8.50;;;3.80;;
18720;SDS011;9489;50.948;3.114;2023-04-25T05:23:13;8.98;;;4.25;;
18720;SDS011;9489;50.948;3.114;2023-04-25T05:25:39;8.93;;;4.03;;
18720;SDS011;9489;50.948;3.114;2023-04-25T05:28:04;9.05;;;3.70;;
18720;SDS011;9489;50.948;3.114;2023-04-25T05:30:30;7.57;;;3.58;;
18720;SDS011;9489;50.948;3.114;2023-04-25T05:32:56;14.77;;;3.90;;
18720;SDS011;9489;50.948;3.114;2023-04-25T05:35:22;9.57;;;4.25;;
18720;SDS011;9489;50.948;3.114;2023-04-25T05:37:47;11.65;;;3.90;;
18720;SDS011;9489;50.948;3.114;2023-04-25T05:40:13;7.50;;;3.65;;
18720;SDS011;9489;50.948;3.114;2023-04-25T05:42:39;9.93;;;3.25;;
18720;SDS011;9489;50.948;3.114;2023-04-25T05:45:05;9.70;;;3.35;;
18720;SDS011;9489;50.948;3.114;2023-04-25T05:47:31;10.65;;;4.03;;
18720;SDS011;9489;50.948;3.114;2023-04-25T05:49:56;12.40;;;3.78;;
18720;SDS011;9489;50.948;3.114;2023-04-25T05:52:22;9.30;;;4.30;;
18720;SDS011;9489;50.948;3.114;2023-04-25T05:54:48;9.98;;;4.13;;
18720;SDS011;9489;50.948;3.114;2023-04-25T05:57:20;13.05;;;6.32;;
18720;SDS011;9489;50.948;3.114;2023-04-25T05:59:50;14.93;;;5.78;;
18720;SDS011;9489;50.948;3.114;2023-04-25T06:02:17;9.75;;;4.93;;
18720;SDS011;9489;50.948;3.114;2023-04-25T06:04:43;12.05;;;4.50;;
18720;SDS011;9489;50.948;3.114;2023-04-25T06:07:08;7.22;;;3.35;;
18720;SDS011;9489;50.948;3.114;2023-04-25T06:09:34;10.85;;;4.13;;
18720;SDS011;9489;50.948;3.114;2023-04-25T06:12:00;12.43;;;4.43;;
18720;SDS011;9489;50.948;3.114;2023-04-25T06:14:26;8.35;;;3.85;;
18720;SDS011;9489;50.948;3.114;2023-04-25T06:16:52;10.20;;;4.53;;
18720;SDS011;9489;50.948;3.114;2023-04-25T06:19:18;7.35;;;3.60;;
18720;SDS011;9489;50.948;3.114;2023-04-25T06:21:44;9.68;;;4.10;;
18720;SDS011;9489;50.948;3.114;2023-04-25T06:24:10;6.75;;;3.03;;
18720;SDS011;9489;50.948;3.114;2023-04-25T06:26:36;8.38;;;3.25;;
18720;SDS011;9489;50.948;3.114;2023-04-25T06:29:01;6.90;;;3.28;;
18720;SDS011;9489;50.948;3.114;2023-04-25T06:31:27;9.18;;;3.75;;
18720;SDS011;9489;50.948;3.114;2023-04-25T06:33:54;10.55;;;3.28;;
18720;SDS011;9489;50.948;3.114;2023-04-25T06:36:23;7.65;;;2.80;;
18720;SDS011;9489;50.948;3.114;2023-04-25T06:38:53;8.35;;;2.50;;
18720;SDS011;9489;50.948;3.114;2023-04-25T06:41:19;7.25;;;2.60;;
18720;SDS011;9489;50.948;3.114;2023-04-25T06:43:45;7.47;;;2.85;;
18720;SDS011;9489;50.948;3.114;2023-04-25T06:46:11;8.25;;;2.80;;
18720;SDS011;9489;50.948;3.114;2023-04-25T06:48:37;13.65;;;3.88;;
18720;SDS011;9489;50.948;3.114;2023-04-25T06:51:03;8.43;;;2.75;;
18720;SDS011;9489;50.948;3.114;2023-04-25T06:53:28;9.90;;;2.80;;
18720;SDS011;9489;50.948;3.114;2023-04-25T06:55:54;8.57;;;2.75;;
18720;SDS011;9489;50.948;3.114;2023-04-25T06:58:20;8.95;;;3.03;;
18720;SDS011;9489;50.948;3.114;2023-04-25T07:00:45;8.20;;;2.95;;
18720;SDS011;9489;50.948;3.114;2023-04-25T07:03:11;10.32;;;3.22;;
18720;SDS011;9489;50.948;3.114;2023-04-25T07:05:37;9.18;;;3.00;;
18720;SDS011;9489;50.948;3.114;2023-04-25T07:08:02;5.55;;;3.03;;
18720;SDS011;9489;50.948;3.114;2023-04-25T07:10:28;9.05;;;3.28;;
18720;SDS011;9489;50.948;3.114;2023-04-25T07:12:54;9.90;;;3.05;;
18720;SDS011;9489;50.948;3.114;2023-04-25T07:15:20;7.47;;;3.10;;
18720;SDS011;9489;50.948;3.114;2023-04-25T07:17:46;8.52;;;3.00;;
18720;SDS011;9489;50.948;3.114;2023-04-25T07:20:11;10.48;;;2.70;;
18720;SDS011;9489;50.948;3.114;2023-04-25T07:22:37;5.53;;;2.50;;
18720;SDS011;9489;50.948;3.114;2023-04-25T07:25:03;6.47;;;1.95;;
18720;SDS011;9489;50.948;3.114;2023-04-25T07:27:29;7.78;;;2.60;;
18720;SDS011;9489;50.948;3.114;2023-04-25T07:29:55;5.18;;;2.08;;
18720;SDS011;9489;50.948;3.114;2023-04-25T07:32:21;5.63;;;2.10;;
18720;SDS011;9489;50.948;3.114;2023-04-25T07:34:47;7.10;;;2.95;;
18720;SDS011;9489;50.948;3.114;2023-04-25T07:37:12;5.38;;;2.63;;
18720;SDS011;9489;50.948;3.114;2023-04-25T07:39:39;6.35;;;2.25;;
18720;SDS011;9489;50.948;3.114;2023-04-25T07:42:05;8.27;;;2.40;;
18720;SDS011;9489;50.948;3.114;2023-04-25T07:44:33;6.80;;;2.67;;
18720;SDS011;9489;50.948;3.114;2023-04-25T07:47:04;5.00;;;2.05;;
18720;SDS011;9489;50.948;3.114;2023-04-25T07:49:34;5.93;;;2.20;;
18720;SDS011;9489;50.948;3.114;2023-04-25T07:52:00;4.25;;;2.35;;
18720;SDS011;9489;50.948;3.114;2023-04-25T07:54:27;6.88;;;2.55;;
18720;SDS011;9489;50.948;3.114;2023-04-25T07:56:52;6.00;;;2.10;;
18720;SDS011;9489;50.948;3.114;2023-04-25T07:59:18;6.63;;;2.17;;
18720;SDS011;9489;50.948;3.114;2023-04-25T08:01:44;8.63;;;2.35;;
18720;SDS011;9489;50.948;3.114;2023-04-25T08:04:10;9.95;;;2.35;;
18720;SDS011;9489;50.948;3.114;2023-04-25T08:06:36;9.57;;;2.90;;
18720;SDS011;9489;50.948;3.114;2023-04-25T08:09:02;5.13;;;2.22;;
18720;SDS011;9489;50.948;3.114;2023-04-25T08:11:28;8.00;;;2.40;;
18720;SDS011;9489;50.948;3.114;2023-04-25T08:13:54;11.25;;;2.92;;
18720;SDS011;9489;50.948;3.114;2023-04-25T08:16:19;5.47;;;2.35;;
18720;SDS011;9489;50.948;3.114;2023-04-25T08:18:45;7.32;;;1.92;;
18720;SDS011;9489;50.948;3.114;2023-04-25T08:21:11;5.78;;;2.03;;
18720;SDS011;9489;50.948;3.114;2023-04-25T08:23:37;4.05;;;1.80;;
18720;SDS011;9489;50.948;3.114;2023-04-25T08:26:03;7.68;;;1.75;;
18720;SDS011;9489;50.948;3.114;2023-04-25T08:28:29;6.38;;;1.75;;
18720;SDS011;9489;50.948;3.114;2023-04-25T08:30:56;4.57;;;2.20;;
18720;SDS011;9489;50.948;3.114;2023-04-25T08:33:21;5.93;;;2.20;;
18720;SDS011;9489;50.948;3.114;2023-04-25T08:35:48;9.05;;;2.05;;
18720;SDS011;9489;50.948;3.114;2023-04-25T08:38:14;5.45;;;1.83;;
18720;SDS011;9489;50.948;3.114;2023-04-25T08:40:40;6.43;;;1.83;;
18720;SDS011;9489;50.948;3.114;2023-04-25T08:43:07;6.43;;;2.47;;
18720;SDS011;9489;50.948;3.114;2023-04-25T08:45:41;6.63;;;2.50;;
18720;SDS011;9489;50.948;3.114;2023-04-25T08:48:07;8.23;;;2.40;;
18720;SDS011;9489;50.948;3.114;2023-04-25T08:50:37;6.35;;;2.00;;
18720;SDS011;9489;50.948;3.114;2023-04-25T08:53:10;3.72;;;1.55;;
18720;SDS011;9489;50.948;3.114;2023-04-25T08:55:43;4.82;;;1.55;;
18720;SDS011;9489;50.948;3.114;2023-04-25T08:58:11;3.85;;;1.55;;
18720;SDS011;9489;50.948;3.114;2023-04-25T09:00:37;3.38;;;1.88;;
18720;SDS011;9489;50.948;3.114;2023-04-25T09:03:03;3.63;;;1.17;;
18720;SDS011;9489;50.948;3.114;2023-04-25T09:05:30;2.92;;;1.30;;
18720;SDS011;9489;50.948;3.114;2023-04-25T09:07:57;4.38;;;1.58;;
18720;SDS011;9489;50.948;3.114;2023-04-25T09:10:23;6.03;;;1.85;;
18720;SDS011;9489;50.948;3.114;2023-04-25T09:13:05;4.60;;;1.50;;
18720;SDS011;9489;50.948;3.114;2023-04-25T09:15:33;4.97;;;1.50;;
18720;SDS011;9489;50.948;3.114;2023-04-25T09:20:55;4.50;;;1.83;;
18720;SDS011;9489;50.948;3.114;2023-04-25T09:23:23;3.95;;;1.70;;
18720;SDS011;9489;50.948;3.114;2023-04-25T09:25:51;3.35;;;1.40;;
18720;SDS011;9489;50.948;3.114;2023-04-25T09:28:27;2.55;;;1.30;;
18720;SDS011;9489;50.948;3.114;2023-04-25T09:30:56;4.30;;;1.83;;
18720;SDS011;9489;50.948;3.114;2023-04-25T09:33:26;4.15;;;1.83;;
18720;SDS011;9489;50.948;3.114;2023-04-25T09:35:54;4.65;;;1.50;;
18720;SDS011;9489;50.948;3.114;2023-04-25T09:38:40;2.78;;;1.20;;
18720;SDS011;9489;50.948;3.114;2023-04-25T09:41:07;2.42;;;1.52;;
18720;SDS011;9489;50.948;3.114;2023-04-25T09:43:35;3.47;;;1.67;;
18720;SDS011;9489;50.948;3.114;2023-04-25T09:46:01;2.80;;;1.40;;
18720;SDS011;9489;50.948;3.114;2023-04-25T09:48:28;2.63;;;1.48;;
18720;SDS011;9489;50.948;3.114;2023-04-25T09:53:33;2.85;;;1.35;;
18720;SDS011;9489;50.948;3.114;2023-04-25T09:56:06;5.35;;;1.60;;
18720;SDS011;9489;50.948;3.114;2023-04-25T09:58:34;3.00;;;1.42;;
18720;SDS011;9489;50.948;3.114;2023-04-25T10:01:05;2.25;;;1.20;;
18720;SDS011;9489;50.948;3.114;2023-04-25T10:03:33;1.92;;;1.23;;
18720;SDS011;9489;50.948;3.114;2023-04-25T10:06:01;7.07;;;1.65;;
18720;SDS011;9489;50.948;3.114;2023-04-25T10:08:33;3.08;;;1.20;;
18720;SDS011;9489;50.948;3.114;2023-04-25T10:11:05;2.10;;;1.20;;
18720;SDS011;9489;50.948;3.114;2023-04-25T10:13:33;2.20;;;1.60;;
18720;SDS011;9489;50.948;3.114;2023-04-25T10:16:01;4.55;;;1.33;;
18720;SDS011;9489;50.948;3.114;2023-04-25T10:18:29;3.33;;;1.50;;
18720;SDS011;9489;50.948;3.114;2023-04-25T10:20:59;4.47;;;1.67;;
18720;SDS011;9489;50.948;3.114;2023-04-25T10:23:26;3.92;;;1.67;;
18720;SDS011;9489;50.948;3.114;2023-04-25T10:25:54;2.25;;;1.40;;
18720;SDS011;9489;50.948;3.114;2023-04-25T10:28:20;3.92;;;1.35;;
18720;SDS011;9489;50.948;3.114;2023-04-25T10:31:07;2.85;;;1.17;;
18720;SDS011;9489;50.948;3.114;2023-04-25T10:33:33;4.13;;;3.65;;
18720;SDS011;9489;50.948;3.114;2023-04-25T10:36:08;4.60;;;1.63;;
18720;SDS011;9489;50.948;3.114;2023-04-25T10:38:37;4.78;;;1.80;;
18720;SDS011;9489;50.948;3.114;2023-04-25T10:41:07;3.25;;;1.55;;
18720;SDS011;9489;50.948;3.114;2023-04-25T10:46:13;3.45;;;1.45;;
18720;SDS011;9489;50.948;3.114;2023-04-25T10:49:05;3.30;;;1.10;;
18720;SDS011;9489;50.948;3.114;2023-04-25T10:51:35;4.07;;;1.27;;
18720;SDS011;9489;50.948;3.114;2023-04-25T10:54:02;4.07;;;1.02;;
18720;SDS011;9489;50.948;3.114;2023-04-25T10:56:33;2.95;;;1.35;;
18720;SDS011;9489;50.948;3.114;2023-04-25T11:01:38;1.92;;;0.93;;
18720;SDS011;9489;50.948;3.114;2023-04-25T11:04:05;3.58;;;1.25;;
18720;SDS011;9489;50.948;3.114;2023-04-25T11:06:44;3.58;;;0.98;;
18720;SDS011;9489;50.948;3.114;2023-04-25T11:09:32;3.78;;;1.35;;
18720;SDS011;9489;50.948;3.114;2023-04-25T11:11:59;3.55;;;1.27;;
18720;SDS011;9489;50.948;3.114;2023-04-25T11:14:25;2.13;;;1.30;;
18720;SDS011;9489;50.948;3.114;2023-04-25T11:16:58;2.50;;;1.35;;
18720;SDS011;9489;50.948;3.114;2023-04-25T11:19:26;3.20;;;1.10;;
18720;SDS011;9489;50.948;3.114;2023-04-25T11:21:58;2.10;;;1.13;;
18720;SDS011;9489;50.948;3.114;2023-04-25T11:24:28;1.92;;;0.93;;
18720;SDS011;9489;50.948;3.114;2023-04-25T11:26:55;3.50;;;2.20;;
18720;SDS011;9489;50.948;3.114;2023-04-25T11:29:23;1.65;;;1.20;;
18720;SDS011;9489;50.948;3.114;2023-04-25T11:31:51;3.05;;;1.58;;
18720;SDS011;9489;50.948;3.114;2023-04-25T11:34:18;2.60;;;1.20;;
18720;SDS011;9489;50.948;3.114;2023-04-25T11:36:44;2.85;;;1.85;;
18720;SDS011;9489;50.948;3.114;2023-04-25T11:39:11;3.58;;;1.75;;
18720;SDS011;9489;50.948;3.114;2023-04-25T11:41:37;4.28;;;1.33;;
18720;SDS011;9489;50.948;3.114;2023-04-25T11:44:03;2.55;;;1.23;;
18720;SDS011;9489;50.948;3.114;2023-04-25T11:46:30;3.42;;;1.40;;
18720;SDS011;9489;50.948;3.114;2023-04-25T11:48:56;1.95;;;1.27;;
18720;SDS011;9489;50.948;3.114;2023-04-25T11:51:22;2.20;;;1.40;;
18720;SDS011;9489;50.948;3.114;2023-04-25T11:53:48;2.10;;;1.10;;
18720;SDS011;9489;50.948;3.114;2023-04-25T11:56:13;4.47;;;1.08;;
18720;SDS011;9489;50.948;3.114;2023-04-25T11:59:02;3.20;;;1.73;;
18720;SDS011;9489;50.948;3.114;2023-04-25T12:01:30;5.43;;;2.03;;
18720;SDS011;9489;50.948;3.114;2023-04-25T12:04:15;4.88;;;1.65;;
18720;SDS011;9489;50.948;3.114;2023-04-25T12:06:43;3.88;;;1.70;;
18720;SDS011;9489;50.948;3.114;2023-04-25T12:09:14;5.22;;;1.90;;
18720;SDS011;9489;50.948;3.114;2023-04-25T12:11:52;4.85;;;1.75;;
18720;SDS011;9489;50.948;3.114;2023-04-25T12:14:23;3.90;;;1.90;;
18720;SDS011;9489;50.948;3.114;2023-04-25T12:16:51;8.32;;;1.98;;
18720;SDS011;9489;50.948;3.114;2023-04-25T12:19:18;4.85;;;1.60;;
18720;SDS011;9489;50.948;3.114;2023-04-25T12:21:45;4.28;;;1.75;;
18720;SDS011;9489;50.948;3.114;2023-04-25T12:26:48;4.50;;;1.85;;
18720;SDS011;9489;50.948;3.114;2023-04-25T12:29:34;7.00;;;2.15;;
18720;SDS011;9489;50.948;3.114;2023-04-25T12:32:00;4.97;;;2.33;;
18720;SDS011;9489;50.948;3.114;2023-04-25T12:34:29;5.95;;;2.33;;
18720;SDS011;9489;50.948;3.114;2023-04-25T12:36:56;4.05;;;1.60;;
18720;SDS011;9489;50.948;3.114;2023-04-25T12:39:23;3.25;;;1.70;;
18720;SDS011;9489;50.948;3.114;2023-04-25T12:41:52;5.15;;;1.75;;
18720;SDS011;9489;50.948;3.114;2023-04-25T12:44:19;3.80;;;1.40;;
18720;SDS011;9489;50.948;3.114;2023-04-25T12:46:45;4.57;;;1.50;;
18720;SDS011;9489;50.948;3.114;2023-04-25T12:49:11;2.20;;;1.30;;
18720;SDS011;9489;50.948;3.114;2023-04-25T12:51:37;2.40;;;1.33;;
18720;SDS011;9489;50.948;3.114;2023-04-25T12:54:03;3.17;;;1.27;;
18720;SDS011;9489;50.948;3.114;2023-04-25T12:56:31;2.60;;;1.40;;
18720;SDS011;9489;50.948;3.114;2023-04-25T12:58:57;3.40;;;1.40;;
18720;SDS011;9489;50.948;3.114;2023-04-25T13:01:23;3.25;;;1.58;;
18720;SDS011;9489;50.948;3.114;2023-04-25T13:03:49;4.25;;;1.40;;
18720;SDS011;9489;50.948;3.114;2023-04-25T13:06:15;2.33;;;1.35;;
18720;SDS011;9489;50.948;3.114;2023-04-25T13:08:42;2.47;;;1.20;;
18720;SDS011;9489;50.948;3.114;2023-04-25T13:11:08;3.40;;;1.55;;
18720;SDS011;9489;50.948;3.114;2023-04-25T13:13:34;1.58;;;1.00;;
18720;SDS011;9489;50.948;3.114;2023-04-25T13:16:01;2.80;;;1.55;;
18720;SDS011;9489;50.948;3.114;2023-04-25T13:18:27;2.53;;;1.60;;
18720;SDS011;9489;50.948;3.114;2023-04-25T13:20:54;2.42;;;1.10;;
18720;SDS011;9489;50.948;3.114;2023-04-25T13:23:20;2.38;;;1.05;;
18720;SDS011;9489;50.948;3.114;2023-04-25T13:25:46;2.67;;;1.10;;
18720;SDS011;9489;50.948;3.114;2023-04-25T13:28:12;2.55;;;1.20;;
18720;SDS011;9489;50.948;3.114;2023-04-25T13:30:38;4.35;;;1.20;;
18720;SDS011;9489;50.948;3.114;2023-04-25T13:33:04;2.78;;;1.20;;
18720;SDS011;9489;50.948;3.114;2023-04-25T13:35:31;2.47;;;1.25;;
18720;SDS011;9489;50.948;3.114;2023-04-25T13:37:58;2.78;;;1.25;;
18720;SDS011;9489;50.948;3.114;2023-04-25T13:40:24;2.28;;;1.60;;
18720;SDS011;9489;50.948;3.114;2023-04-25T13:42:51;2.38;;;1.25;;
18720;SDS011;9489;50.948;3.114;2023-04-25T13:45:17;2.78;;;1.00;;
18720;SDS011;9489;50.948;3.114;2023-04-25T13:47:43;3.60;;;1.10;;
18720;SDS011;9489;50.948;3.114;2023-04-25T13:50:09;3.88;;;1.58;;
18720;SDS011;9489;50.948;3.114;2023-04-25T13:52:35;3.58;;;1.63;;
18720;SDS011;9489;50.948;3.114;2023-04-25T13:55:00;6.97;;;1.92;;
18720;SDS011;9489;50.948;3.114;2023-04-25T13:57:28;4.05;;;1.52;;
18720;SDS011;9489;50.948;3.114;2023-04-25T13:59:55;2.08;;;1.25;;
18720;SDS011;9489;50.948;3.114;2023-04-25T14:02:21;3.85;;;1.35;;
18720;SDS011;9489;50.948;3.114;2023-04-25T14:04:47;4.80;;;1.50;;
18720;SDS011;9489;50.948;3.114;2023-04-25T14:07:13;4.13;;;1.70;;
18720;SDS011;9489;50.948;3.114;2023-04-25T14:09:41;4.20;;;1.13;;
18720;SDS011;9489;50.948;3.114;2023-04-25T14:12:07;6.05;;;1.30;;
18720;SDS011;9489;50.948;3.114;2023-04-25T14:14:33;3.97;;;1.27;;
18720;SDS011;9489;50.948;3.114;2023-04-25T14:16:58;3.30;;;1.50;;
18720;SDS011;9489;50.948;3.114;2023-04-25T14:19:24;3.50;;;1.60;;
18720;SDS011;9489;50.948;3.114;2023-04-25T14:21:50;3.20;;;1.20;;
18720;SDS011;9489;50.948;3.114;2023-04-25T14:24:16;4.30;;;1.35;;
18720;SDS011;9489;50.948;3.114;2023-04-25T14:26:41;7.28;;;2.03;;
18720;SDS011;9489;50.948;3.114;2023-04-25T14:29:08;5.95;;;1.70;;
18720;SDS011;9489;50.948;3.114;2023-04-25T14:31:34;3.78;;;1.60;;
18720;SDS011;9489;50.948;3.114;2023-04-25T14:34:00;20.83;;;18.75;;
18720;SDS011;9489;50.948;3.114;2023-04-25T14:36:30;4.70;;;2.28;;
18720;SDS011;9489;50.948;3.114;2023-04-25T14:38:56;3.38;;;1.60;;
18720;SDS011;9489;50.948;3.114;2023-04-25T14:41:23;3.42;;;1.58;;
18720;SDS011;9489;50.948;3.114;2023-04-25T14:43:50;2.20;;;1.30;;
18720;SDS011;9489;50.948;3.114;2023-04-25T14:46:16;1.60;;;1.13;;
18720;SDS011;9489;50.948;3.114;2023-04-25T14:48:41;4.35;;;1.40;;
18720;SDS011;9489;50.948;3.114;2023-04-25T14:51:07;5.95;;;1.90;;
18720;SDS011;9489;50.948;3.114;2023-04-25T14:53:33;3.28;;;1.55;;
18720;SDS011;9489;50.948;3.114;2023-04-25T14:55:59;5.97;;;1.90;;
18720;SDS011;9489;50.948;3.114;2023-04-25T14:58:24;4.60;;;1.80;;
18720;SDS011;9489;50.948;3.114;2023-04-25T15:00:50;5.78;;;1.80;;
18720;SDS011;9489;50.948;3.114;2023-04-25T15:03:16;5.00;;;1.48;;
18720;SDS011;9489;50.948;3.114;2023-04-25T15:05:42;6.22;;;1.60;;
18720;SDS011;9489;50.948;3.114;2023-04-25T15:08:08;4.60;;;1.75;;
18720;SDS011;9489;50.948;3.114;2023-04-25T15:10:35;5.72;;;2.35;;